Barry, United Kingdom
Current Conditions -  °F | °C
As of 4:20 PM on Wednesday 26 Nov 2014 (Local Time) from EGFF Reporting Station
Haze Haze  
Wind Chill: 46°   Ceiling: 2900
Heat Index: 46°   Visibility: 2.6mi
Dew Point: 45°   Wind: 2mph
Humidity: 93%   Direction: 100°E
Pressure: 29.83"   Gusts: NA
Location:  51.41°N, 3.27°W
Report Text: EGFF 261620Z AUTO 10002KT 4300 BR FEW017 BKN029 OVC042 08/07 Q1010
Loading
Personal Weather Stations






























Interactive Weather Map New forecast layout! Learn more

10-Day Weather Forecast

Advertisements
Track Severe Weather on mobile